Time;durP1;ratioP1;P1;durP2;ratioP2;P2;SDS_P1;SDS_P2;PMS_P1;PMS_P2;Temp;Humidity;BMP_temperature;BMP_pressure;BME280_temperature;BME280_humidity;BME280_pressure;Samples;Min_cycle;Max_cycle;Signal;HPM_P1;HPM_P2
2022/01/15 00:01:04;;;;;;;3.63;1.00;;;;;;;-1.89;68.22;95787.16;5065940;28;20050;-59
2022/01/15 00:03:29;;;;;;;2.05;0.90;;;;;;;-2.08;67.60;95758.19;5073060;28;20032;-61
2022/01/15 00:05:55;;;;;;;0.75;0.75;;;;;;;-1.93;68.03;95792.06;5063169;28;20155;-58
2022/01/15 00:08:21;;;;;;;5.07;1.25;;;;;;;-1.94;67.34;95798.31;5052082;28;20118;-58
2022/01/15 00:10:47;;;;;;;1.05;1.05;;;;;;;-1.90;67.48;95812.34;5062140;28;20130;-60
2022/01/15 00:13:23;;;;;;;1.95;0.90;;;;;;;-1.94;67.62;95800.09;5073437;28;20512;-61
2022/01/15 00:15:54;;;;;;;1.95;0.63;;;;;;;-1.92;67.49;95793.63;5072044;28;20076;-60
2022/01/15 00:18:38;;;;;;;1.73;0.85;;;;;;;-1.97;67.35;95795.38;5073472;28;20036;-59
2022/01/15 00:21:06;;;;;;;2.30;0.82;;;;;;;-2.00;67.67;95806.25;5073034;28;20102;-59
2022/01/15 00:23:31;;;;;;;5.78;1.30;;;;;;;-1.95;67.78;95808.91;5071768;28;20036;-61
2022/01/15 00:25:57;;;;;;;1.48;1.10;;;;;;;-1.95;67.28;95796.72;5069523;28;20102;-58
2022/01/15 00:28:23;;;;;;;0.88;0.88;;;;;;;-1.93;67.41;95799.06;5071629;28;20072;-60
2022/01/15 00:30:49;;;;;;;1.98;0.73;;;;;;;-1.99;67.66;95792.28;5072680;28;20049;-59
2022/01/15 00:33:14;;;;;;;1.70;0.90;;;;;;;-1.92;67.83;95811.00;5071856;28;20044;-59
2022/01/15 00:35:40;;;;;;;2.72;1.27;;;;;;;-1.96;67.94;95802.94;5070489;28;20041;-59
2022/01/15 00:38:06;;;;;;;1.40;1.25;;;;;;;-1.88;69.13;95807.69;5072585;28;20109;-59
2022/01/15 00:40:32;;;;;;;2.30;1.45;;;;;;;-1.88;71.44;95818.09;5072162;28;20505;-59
2022/01/15 00:42:57;;;;;;;1.40;0.90;;;;;;;-1.97;72.70;95806.56;5071420;28;20071;-60
2022/01/15 00:45:24;;;;;;;1.42;1.23;;;;;;;-2.00;73.47;95811.44;5071934;28;20045;-60
2022/01/15 00:47:51;;;;;;;1.95;1.40;;;;;;;-2.08;74.19;95807.50;5071421;28;20529;-58
2022/01/15 00:50:17;;;;;;;1.42;1.05;;;;;;;-2.13;74.76;95803.03;5072498;28;20040;-58
2022/01/15 00:52:43;;;;;;;3.47;1.50;;;;;;;-2.13;74.93;95823.00;5056003;28;20047;-58
2022/01/15 00:55:11;;;;;;;4.20;1.70;;;;;;;-2.09;74.47;95811.09;5070283;28;20119;-59
2022/01/15 00:57:37;;;;;;;3.28;1.63;;;;;;;-2.08;74.54;95810.88;5071327;28;20040;-58
2022/01/15 01:00:05;;;;;;;2.22;1.55;;;;;;;-1.99;74.21;95818.22;5071152;28;20041;-64
2022/01/15 01:02:31;;;;;;;1.90;1.63;;;;;;;-1.96;73.74;95809.94;5072088;28;20399;-60
2022/01/15 01:04:57;;;;;;;5.68;1.90;;;;;;;-1.98;73.96;95810.19;5070773;28;20055;-59
2022/01/15 01:07:22;;;;;;;4.35;1.38;;;;;;;-2.02;73.35;95813.53;5070887;28;20072;-58
2022/01/15 01:12:55;;;;;;;6.00;2.13;;;;;;;-1.89;73.50;95818.31;5072291;28;20044;-59
2022/01/15 01:23:02;;;;;;;2.13;1.52;;;;;;;-1.80;72.30;95824.63;5072275;28;20041;-60
2022/01/15 01:25:35;;;;;;;2.20;1.20;;;;;;;-1.83;71.81;95817.34;5071921;28;20044;-59
2022/01/15 01:28:09;;;;;;;4.60;1.67;;;;;;;-1.81;70.98;95825.66;5072085;28;20398;-60
2022/01/15 01:30:49;;;;;;;2.88;1.90;;;;;;;-1.87;71.31;95835.22;5070457;28;20050;-58
2022/01/15 01:33:31;;;;;;;1.38;1.10;;;;;;;-1.89;69.97;95834.66;5072020;28;20048;-58
2022/01/15 01:38:56;;;;;;;2.28;1.05;;;;;;;-1.78;68.91;95819.97;5071698;28;20032;-59
2022/01/15 01:41:23;;;;;;;2.13;1.10;;;;;;;-1.73;68.18;95825.22;5071454;28;20045;-59
2022/01/15 01:44:01;;;;;;;0.90;0.70;;;;;;;-1.72;68.06;95834.56;5071929;28;20053;-59
2022/01/15 01:48:54;;;;;;;1.48;0.95;;;;;;;-1.64;68.39;95846.34;5071493;28;20036;-60
2022/01/15 01:51:30;;;;;;;1.45;1.30;;;;;;;-1.61;68.57;95838.84;5071659;28;20326;-58
2022/01/15 01:54:01;;;;;;;0.82;0.82;;;;;;;-1.63;69.57;95837.50;5071555;28;20042;-60
2022/01/15 01:56:26;;;;;;;2.45;1.45;;;;;;;-1.57;69.66;95844.31;5067639;28;20044;-59
2022/01/15 01:58:53;;;;;;;4.25;1.63;;;;;;;-1.57;69.53;95849.50;5070175;28;20098;-61
2022/01/15 02:01:18;;;;;;;2.85;1.83;;;;;;;-1.56;69.78;95845.09;5071531;28;20405;-57
2022/01/15 02:03:44;;;;;;;2.40;1.67;;;;;;;-1.57;70.22;95849.50;5062621;28;20048;-59
2022/01/15 02:06:10;;;;;;;3.85;1.75;;;;;;;-1.52;70.52;95849.56;5061144;28;20060;-59
2022/01/15 02:08:37;;;;;;;4.95;1.85;;;;;;;-1.49;71.16;95850.88;5071643;28;20037;-60
2022/01/15 02:11:05;;;;;;;3.95;2.05;;;;;;;-1.42;71.68;95849.63;5070063;28;20075;-58
2022/01/15 02:13:31;;;;;;;4.20;1.75;;;;;;;-1.48;72.80;95849.84;5071439;28;20048;-59
2022/01/15 02:15:58;;;;;;;2.55;1.98;;;;;;;-1.50;73.40;95854.50;5062187;28;20055;-58
2022/01/15 02:18:25;;;;;;;3.35;2.35;;;;;;;-1.49;73.98;95843.88;5062297;28;20051;-58
2022/01/15 02:23:52;;;;;;;7.60;3.13;;;;;;;-1.46;74.17;95853.00;5059740;28;20502;-60
2022/01/15 02:26:20;;;;;;;10.25;3.90;;;;;;;-1.55;74.60;95855.25;5062691;28;20044;-58
2022/01/15 02:28:58;;;;;;;12.80;5.78;;;;;;;-1.50;74.89;95851.91;5071080;28;20071;-58
2022/01/15 02:31:25;;;;;;;12.90;4.90;;;;;;;-1.58;75.13;95854.97;5071216;28;20048;-59
2022/01/15 02:33:53;;;;;;;15.15;5.38;;;;;;;-1.52;74.96;95862.53;5065266;28;20099;-57
2022/01/15 02:36:28;;;;;;;10.80;4.53;;;;;;;-1.46;74.60;95858.19;5063891;28;20048;-59
2022/01/15 02:38:54;;;;;;;8.88;3.63;;;;;;;-1.48;74.68;95865.44;5054711;28;20062;-58
2022/01/15 02:41:35;;;;;;;5.63;2.90;;;;;;;-1.52;74.06;95861.78;5063887;28;20045;-58
2022/01/15 02:44:02;;;;;;;7.13;2.75;;;;;;;-1.54;74.37;95856.81;5037078;28;20049;-59
2022/01/15 02:48:57;;;;;;;4.35;2.00;;;;;;;-1.60;74.31;95868.19;5069640;28;20446;-59
2022/01/15 02:51:25;;;;;;;4.35;2.30;;;;;;;-1.62;74.32;95863.25;5071058;28;20052;-59
2022/01/15 02:53:57;;;;;;;4.25;2.45;;;;;;;-1.57;73.93;95866.91;5063596;28;20079;-58
2022/01/15 02:56:24;;;;;;;8.95;3.70;;;;;;;-1.57;74.65;95872.09;5063120;28;20485;-59
2022/01/15 02:58:50;;;;;;;6.72;3.33;;;;;;;-1.51;74.65;95871.13;5050688;28;20338;-58
2022/01/15 03:01:16;;;;;;;9.38;4.35;;;;;;;-1.52;75.51;95870.34;5063415;28;20087;-60
2022/01/15 03:03:42;;;;;;;7.43;3.70;;;;;;;-1.53;75.26;95880.97;5051859;28;20097;-59
2022/01/15 03:06:12;;;;;;;9.02;3.78;;;;;;;-1.55;75.51;95878.63;5070954;28;20056;-58
2022/01/15 03:08:42;;;;;;;9.60;3.15;;;;;;;-1.53;75.68;95886.16;5070855;28;20040;-58
2022/01/15 03:11:09;;;;;;;7.07;3.47;;;;;;;-1.62;75.41;95884.03;5069458;28;20052;-58
2022/01/15 03:13:36;;;;;;;5.57;2.65;;;;;;;-1.58;75.67;95892.09;5063001;28;20575;-60
2022/01/15 03:16:02;;;;;;;7.05;2.95;;;;;;;-1.67;75.51;95890.97;5062217;28;20041;-58
2022/01/15 03:18:28;;;;;;;3.75;1.83;;;;;;;-1.71;75.73;95889.88;5073117;28;20055;-59
2022/01/15 03:20:54;;;;;;;5.32;2.17;;;;;;;-1.69;75.84;95893.03;5072905;28;20045;-57
2022/01/15 03:23:20;;;;;;;3.45;1.95;;;;;;;-1.67;75.95;95888.38;5019202;28;20041;-58
2022/01/15 03:25:46;;;;;;;3.90;2.63;;;;;;;-1.63;76.30;95898.00;5062466;28;20508;-58
2022/01/15 03:28:11;;;;;;;2.90;2.00;;;;;;;-1.58;76.56;95891.31;5074410;28;20036;-59
2022/01/15 03:30:38;;;;;;;6.32;2.97;;;;;;;-1.53;76.29;95899.13;5074235;28;20086;-59
2022/01/15 03:33:04;;;;;;;5.90;2.55;;;;;;;-1.48;76.34;95897.38;5073379;28;20055;-58
2022/01/15 03:35:30;;;;;;;8.20;3.60;;;;;;;-1.47;76.31;95898.97;5074068;28;20032;-58
2022/01/15 03:37:56;;;;;;;2.58;1.83;;;;;;;-1.49;75.26;95914.00;5058798;28;20426;-58
2022/01/15 03:40:22;;;;;;;4.28;1.58;;;;;;;-1.54;75.77;95911.34;5057633;28;20482;-59
2022/01/15 03:42:48;;;;;;;1.35;1.15;;;;;;;-1.61;75.60;95918.56;5058261;28;20057;-58
2022/01/15 03:45:15;;;;;;;3.92;1.70;;;;;;;-1.60;76.01;95913.09;5057675;28;20082;-58
2022/01/15 03:47:42;;;;;;;2.00;1.38;;;;;;;-1.58;75.63;95912.88;5073797;28;20051;-60
2022/01/15 03:50:09;;;;;;;2.80;1.58;;;;;;;-1.58;75.77;95917.28;5072436;28;20102;-58
2022/01/15 03:52:35;;;;;;;2.67;1.60;;;;;;;-1.56;75.87;95923.78;5066577;28;20059;-60
2022/01/15 03:55:01;;;;;;;1.50;1.40;;;;;;;-1.53;75.60;95938.09;5054767;28;20136;-59
2022/01/15 03:57:27;;;;;;;2.78;1.75;;;;;;;-1.66;75.96;95934.88;5072730;28;20072;-59
2022/01/15 03:59:53;;;;;;;3.53;2.20;;;;;;;-1.57;76.51;95940.41;5073560;28;20442;-59
2022/01/15 04:02:18;;;;;;;4.10;1.58;;;;;;;-1.62;75.94;95941.16;5057400;28;20128;-59
2022/01/15 04:04:44;;;;;;;6.35;2.45;;;;;;;-1.73;76.33;95952.47;5052537;28;20041;-60
2022/01/15 04:07:10;;;;;;;3.47;1.90;;;;;;;-1.74;75.67;95943.06;5071993;28;20498;-60
2022/01/15 04:09:36;;;;;;;3.58;1.83;;;;;;;-1.66;75.63;95949.66;5055414;28;20479;-57
2022/01/15 04:12:02;;;;;;;2.88;1.88;;;;;;;-1.64;75.19;95956.19;5071559;28;20040;-58
2022/01/15 04:14:28;;;;;;;1.58;1.42;;;;;;;-1.60;75.04;95959.84;5055308;28;20089;-59
2022/01/15 04:16:54;;;;;;;2.20;1.50;;;;;;;-1.67;75.31;95974.06;5073038;28;20131;-57
2022/01/15 04:19:20;;;;;;;1.48;1.35;;;;;;;-1.76;75.80;95975.53;5055269;28;20134;-61
2022/01/15 04:21:46;;;;;;;1.60;1.48;;;;;;;-1.80;76.38;95975.22;5071511;28;20040;-59
2022/01/15 04:24:12;;;;;;;1.63;1.40;;;;;;;-1.87;77.03;95974.63;5071840;28;20059;-61
2022/01/15 04:26:37;;;;;;;3.08;1.30;;;;;;;-1.91;77.01;95973.50;5071846;28;20409;-59
2022/01/15 04:29:05;;;;;;;2.42;1.70;;;;;;;-1.84;76.59;95984.53;5070874;28;20037;-59
2022/01/15 04:31:47;;;;;;;1.55;1.40;;;;;;;-1.87;76.50;95988.38;5072972;28;20133;-59
2022/01/15 04:34:15;;;;;;;2.15;1.30;;;;;;;-1.87;76.75;95988.38;5073077;28;20055;-58
2022/01/15 04:36:40;;;;;;;1.63;1.10;;;;;;;-1.88;76.50;95992.00;5072734;28;20067;-57
2022/01/15 04:39:06;;;;;;;4.95;1.10;;;;;;;-1.84;76.41;96000.09;5073374;28;20033;-61
2022/01/15 04:41:32;;;;;;;1.23;1.10;;;;;;;-1.88;77.23;95996.41;5072862;28;20059;-59
2022/01/15 04:43:58;;;;;;;1.65;1.08;;;;;;;-1.86;76.72;96000.31;5071236;28;20049;-59
2022/01/15 04:46:24;;;;;;;2.60;1.10;;;;;;;-1.84;76.69;95998.28;5054573;28;20040;-58
2022/01/15 04:48:50;;;;;;;1.23;1.10;;;;;;;-1.85;76.53;96008.91;5053899;28;20107;-59
2022/01/15 04:51:15;;;;;;;1.70;1.40;;;;;;;-1.81;76.83;96010.00;5064226;28;20127;-58
2022/01/15 04:53:41;;;;;;;5.53;2.30;;;;;;;-1.76;77.23;96010.06;5072425;28;20063;-60
2022/01/15 04:56:07;;;;;;;2.38;1.80;;;;;;;-1.67;76.22;96020.81;5065896;28;20072;-59
2022/01/15 04:58:32;;;;;;;2.20;2.00;;;;;;;-1.66;76.33;96017.97;5052472;28;20087;-60
2022/01/15 05:00:58;;;;;;;2.67;2.00;;;;;;;-1.61;75.93;96025.03;5061265;28;20121;-59
2022/01/15 05:03:24;;;;;;;2.58;1.60;;;;;;;-1.61;75.46;96030.25;5070922;28;20337;-60
2022/01/15 05:05:49;;;;;;;2.42;1.20;;;;;;;-1.60;75.17;96037.00;5070875;28;20084;-59
2022/01/15 05:08:15;;;;;;;0.93;0.93;;;;;;;-1.64;74.97;96034.09;5072188;28;20070;-59
2022/01/15 05:10:46;;;;;;;1.40;1.10;;;;;;;-1.70;75.22;96053.25;5068350;28;20400;-56
2022/01/15 05:13:14;;;;;;;2.08;1.40;;;;;;;-1.66;75.57;96043.94;5072071;28;20045;-58
2022/01/15 05:15:43;;;;;;;4.35;2.10;;;;;;;-1.66;75.74;96053.53;5071881;28;20401;-58
2022/01/15 05:18:09;;;;;;;2.70;1.20;;;;;;;-1.72;75.36;96063.06;5072106;28;20048;-58
2022/01/15 05:20:40;;;;;;;1.90;1.30;;;;;;;-1.75;74.46;96055.78;5060505;28;20041;-57
2022/01/15 05:23:06;;;;;;;0.98;0.98;;;;;;;-1.80;74.34;96073.88;5071926;28;20041;-58
2022/01/15 05:25:32;;;;;;;2.15;1.58;;;;;;;-1.74;74.37;96062.53;5070321;28;20041;-58
2022/01/15 05:27:58;;;;;;;0.82;0.82;;;;;;;-1.87;74.67;96074.03;5070846;28;20738;-58
2022/01/15 05:30:23;;;;;;;1.48;1.35;;;;;;;-1.84;75.25;96077.97;5067243;28;20040;-59
2022/01/15 05:32:49;;;;;;;2.53;1.52;;;;;;;-1.82;75.78;96101.91;5070677;28;20101;-61
2022/01/15 05:35:15;;;;;;;1.52;1.10;;;;;;;-1.77;76.17;96088.19;5070442;28;20051;-59
2022/01/15 05:37:41;;;;;;;1.10;1.10;;;;;;;-1.74;75.88;96114.47;5071621;28;20049;-58
2022/01/15 05:40:07;;;;;;;1.73;1.40;;;;;;;-1.80;76.79;96104.25;5056441;28;20052;-58
2022/01/15 05:42:33;;;;;;;0.93;0.93;;;;;;;-1.78;76.28;96103.00;5071646;28;20537;-59
2022/01/15 05:44:59;;;;;;;1.55;1.20;;;;;;;-1.75;76.48;96110.28;5071323;28;20147;-59
2022/01/15 05:47:25;;;;;;;1.30;1.20;;;;;;;-1.78;76.86;96112.59;5053527;28;20043;-58
2022/01/15 05:49:51;;;;;;;1.00;1.00;;;;;;;-1.78;76.69;96123.75;5065892;28;20131;-62
2022/01/15 05:52:17;;;;;;;2.78;1.30;;;;;;;-1.72;76.65;96122.81;5067634;28;20413;-61
2022/01/15 05:54:43;;;;;;;1.65;1.08;;;;;;;-1.76;76.42;96119.13;5058458;28;20040;-61
2022/01/15 05:57:08;;;;;;;1.50;1.00;;;;;;;-1.77;77.04;96138.31;5054353;28;20045;-59
2022/01/15 05:59:35;;;;;;;2.17;1.40;;;;;;;-1.73;77.16;96139.41;5052582;28;20540;-60
2022/01/15 06:02:01;;;;;;;4.85;1.30;;;;;;;-1.72;76.57;96133.19;5067913;28;20044;-59
2022/01/15 06:04:27;;;;;;;2.50;1.27;;;;;;;-1.68;77.06;96141.28;5069087;28;20036;-60
2022/01/15 06:06:53;;;;;;;3.05;1.77;;;;;;;-1.61;76.68;96154.91;5052357;28;20061;-58
2022/01/15 06:09:18;;;;;;;1.27;0.95;;;;;;;-1.70;76.49;96156.34;5066991;28;20504;-61
2022/01/15 06:11:44;;;;;;;1.77;0.98;;;;;;;-1.66;76.21;96145.22;5067819;28;20189;-58
2022/01/15 06:14:10;;;;;;;1.30;1.20;;;;;;;-1.62;75.78;96164.50;5066704;28;20037;-59
2022/01/15 06:16:36;;;;;;;3.58;1.33;;;;;;;-1.63;75.71;96172.53;5064958;28;20048;-58
2022/01/15 06:19:02;;;;;;;1.23;1.00;;;;;;;-1.62;75.48;96177.50;5071142;28;20573;-60
2022/01/15 06:21:28;;;;;;;0.90;0.90;;;;;;;-1.67;75.03;96174.81;5070856;28;20135;-58
2022/01/15 06:23:53;;;;;;;2.22;1.42;;;;;;;-1.66;75.53;96186.00;5069888;28;20135;-60
2022/01/15 06:26:19;;;;;;;2.80;1.20;;;;;;;-1.56;75.11;96195.72;5069641;28;20048;-61
2022/01/15 06:28:45;;;;;;;1.55;1.40;;;;;;;-1.60;75.41;96204.00;5068612;28;20506;-59
2022/01/15 06:31:12;;;;;;;0.80;0.80;;;;;;;-1.67;74.75;96205.97;5062868;28;20493;-59
2022/01/15 06:33:38;;;;;;;0.82;0.82;;;;;;;-1.61;74.92;96207.63;5058690;28;20110;-59
2022/01/15 06:36:04;;;;;;;1.00;1.00;;;;;;;-1.57;74.39;96207.94;5057731;28;20486;-59
2022/01/15 06:38:32;;;;;;;0.77;0.77;;;;;;;-1.60;74.05;96205.81;5067150;28;20098;-59
2022/01/15 06:41:02;;;;;;;8.45;3.15;;;;;;;-1.64;74.14;96212.53;5019103;28;20043;-62
2022/01/15 06:43:28;;;;;;;1.42;0.90;;;;;;;-1.58;74.45;96224.56;5054403;28;20492;-60
2022/01/15 06:45:53;;;;;;;0.70;0.70;;;;;;;-1.55;74.15;96226.69;5065649;28;20040;-61
2022/01/15 06:48:19;;;;;;;0.80;0.80;;;;;;;-1.51;74.80;96217.38;5070467;28;20036;-60
2022/01/15 06:50:45;;;;;;;1.27;0.95;;;;;;;-1.49;75.39;96224.94;5052980;28;20040;-60
2022/01/15 06:53:11;;;;;;;1.58;1.30;;;;;;;-1.38;75.46;96227.44;5080043;28;20044;-61
2022/01/15 06:55:37;;;;;;;2.22;1.60;;;;;;;-1.29;75.74;96233.03;5074554;28;20522;-60
2022/01/15 06:58:03;;;;;;;2.35;1.50;;;;;;;-1.23;74.89;96237.28;5073921;28;20123;-62
2022/01/15 07:00:29;;;;;;;1.70;1.50;;;;;;;-1.19;74.77;96234.97;5068560;28;20127;-62
2022/01/15 07:02:55;;;;;;;3.40;2.63;;;;;;;-1.17;74.15;96235.53;5074276;28;20128;-60
2022/01/15 07:05:21;;;;;;;2.50;2.00;;;;;;;-1.14;74.37;96248.03;5074338;28;20481;-61
2022/01/15 07:07:48;;;;;;;2.00;1.20;;;;;;;-1.06;73.54;96260.63;5073286;28;20036;-59
2022/01/15 07:10:14;;;;;;;3.75;1.20;;;;;;;-1.05;73.55;96264.81;5057352;28;20085;-59
2022/01/15 07:12:40;;;;;;;2.33;1.38;;;;;;;-1.04;72.95;96255.19;5070712;28;20426;-60
2022/01/15 07:15:07;;;;;;;3.45;1.10;;;;;;;-1.10;72.15;96271.75;5070434;28;20041;-61
2022/01/15 07:17:32;;;;;;;1.10;1.00;;;;;;;-1.07;71.93;96281.66;5053402;28;20037;-62
2022/01/15 07:19:58;;;;;;;2.08;1.20;;;;;;;-1.04;72.95;96281.97;5053983;28;20195;-61
2022/01/15 07:22:24;;;;;;;4.00;2.05;;;;;;;-1.21;73.69;96281.97;5063651;28;20033;-58
2022/01/15 07:24:49;;;;;;;1.83;1.60;;;;;;;-1.21;74.21;96296.78;5070781;28;20610;-60
2022/01/15 07:27:15;;;;;;;4.35;1.40;;;;;;;-1.20;74.54;96291.38;5069537;28;20044;-58
2022/01/15 07:29:41;;;;;;;6.40;2.20;;;;;;;-1.31;75.58;96283.66;5055152;28;20041;-59
2022/01/15 07:32:07;;;;;;;3.45;1.80;;;;;;;-1.27;75.12;96301.13;5055031;28;20125;-58
2022/01/15 07:34:33;;;;;;;2.67;1.95;;;;;;;-1.22;75.07;96308.22;5051897;28;20048;-58
2022/01/15 07:36:59;;;;;;;4.40;2.53;;;;;;;-1.15;75.09;96298.44;5065394;28;20052;-64
2022/01/15 07:39:26;;;;;;;3.95;2.35;;;;;;;-1.05;75.17;96326.41;5060573;28;20036;-63
2022/01/15 07:41:52;;;;;;;3.17;2.20;;;;;;;-1.15;74.54;96309.66;5058774;28;20037;-61
2022/01/15 07:44:18;;;;;;;2.67;1.38;;;;;;;-1.24;74.57;96316.25;5049920;28;20048;-62
2022/01/15 07:46:44;;;;;;;1.65;1.50;;;;;;;-1.14;74.51;96310.44;5067857;28;20040;-61
2022/01/15 07:49:10;;;;;;;2.30;2.00;;;;;;;-1.26;74.50;96287.13;5071322;28;20359;-63
2022/01/15 07:51:36;;;;;;;1.67;1.30;;;;;;;-1.08;72.07;96322.47;5069189;28;20047;-61
2022/01/15 07:54:03;;;;;;;1.15;1.10;;;;;;;-1.15;72.14;96321.84;5073993;28;20581;-60
2022/01/15 07:56:28;;;;;;;1.48;1.00;;;;;;;-1.21;71.28;96327.97;5066788;28;20065;-61
2022/01/15 07:58:54;;;;;;;1.60;1.20;;;;;;;-1.06;71.29;96343.81;5062278;28;20498;-59
2022/01/15 08:01:20;;;;;;;2.58;1.50;;;;;;;-1.00;70.20;96336.88;5047578;28;20056;-59
2022/01/15 08:03:48;;;;;;;1.45;1.05;;;;;;;-1.03;69.39;96327.75;5063301;28;20040;-61
2022/01/15 08:06:15;;;;;;;2.75;1.50;;;;;;;-0.96;69.74;96346.56;5058788;28;20082;-59
2022/01/15 08:08:41;;;;;;;1.15;1.00;;;;;;;-0.98;69.46;96346.00;5041666;28;20044;-59
2022/01/15 08:11:07;;;;;;;1.40;1.17;;;;;;;-1.09;69.12;96338.28;5054680;28;20055;-61
2022/01/15 08:13:33;;;;;;;1.50;1.40;;;;;;;-1.11;68.95;96358.56;5063458;28;20068;-60
2022/01/15 08:16:01;;;;;;;2.17;0.90;;;;;;;-1.02;68.22;96364.94;5067139;28;20068;-58
2022/01/15 08:18:28;;;;;;;1.98;1.13;;;;;;;-1.07;68.85;96359.66;5073035;28;20040;-59
2022/01/15 08:20:54;;;;;;;7.10;3.40;;;;;;;-1.04;68.35;96361.78;5054504;28;20045;-61
2022/01/15 08:23:20;;;;;;;1.77;1.20;;;;;;;-1.08;68.47;96364.06;5063168;28;20047;-59
2022/01/15 08:25:46;;;;;;;0.82;0.82;;;;;;;-1.08;68.65;96365.88;5088184;28;20055;-61
2022/01/15 08:28:11;;;;;;;1.40;1.30;;;;;;;-0.96;68.13;96375.16;5074146;28;20410;-56
2022/01/15 08:30:37;;;;;;;2.60;1.60;;;;;;;-0.93;68.26;96374.69;5052046;28;20091;-61
2022/01/15 08:33:03;;;;;;;1.33;1.10;;;;;;;-1.03;68.60;96379.75;5053441;28;20074;-59
2022/01/15 08:35:29;;;;;;;6.70;1.65;;;;;;;-1.04;69.48;96388.56;5052773;28;20060;-62
2022/01/15 08:37:57;;;;;;;2.30;1.50;;;;;;;-0.97;69.97;96404.00;5042964;28;20049;-58
2022/01/15 08:40:24;;;;;;;3.10;2.20;;;;;;;-0.88;69.97;96399.19;5059589;28;20044;-60
2022/01/15 08:42:53;;;;;;;1.63;1.40;;;;;;;-0.74;69.37;96416.03;5073036;28;20413;-59
2022/01/15 08:45:20;;;;;;;4.60;1.75;;;;;;;-0.73;69.61;96415.03;5038175;28;20143;-57
2022/01/15 08:47:46;;;;;;;2.60;1.55;;;;;;;-0.69;69.69;96397.91;5054410;28;20490;-57
2022/01/15 08:50:13;;;;;;;2.80;1.90;;;;;;;-0.77;69.74;96404.28;5070237;28;20047;-57
2022/01/15 08:52:39;;;;;;;4.40;2.10;;;;;;;-0.68;69.99;96433.28;5072093;28;20517;-58
2022/01/15 08:55:06;;;;;;;2.70;1.85;;;;;;;-0.64;70.98;96426.63;5070795;28;20509;-59
2022/01/15 08:57:32;;;;;;;3.13;1.98;;;;;;;-0.64;70.58;96434.41;5070354;28;20033;-60
2022/01/15 08:59:59;;;;;;;4.30;2.35;;;;;;;-0.75;71.14;96438.66;5061309;28;20072;-60
2022/01/15 09:02:25;;;;;;;1.48;1.23;;;;;;;-0.94;72.06;96460.75;5052164;28;20068;-59
2022/01/15 09:04:51;;;;;;;3.03;1.50;;;;;;;-1.11;73.66;96449.53;5034203;28;20198;-59
2022/01/15 09:07:16;;;;;;;2.95;1.15;;;;;;;-1.22;74.34;96445.97;5052000;28;20049;-61
2022/01/15 09:09:43;;;;;;;2.78;1.48;;;;;;;-1.10;74.66;96461.50;5053077;28;20036;-60
2022/01/15 09:12:11;;;;;;;2.03;1.20;;;;;;;-1.06;74.39;96453.00;5051363;28;20048;-57
2022/01/15 09:14:38;;;;;;;5.50;2.00;;;;;;;-0.90;72.83;96448.06;5051789;28;20032;-57
2022/01/15 09:17:05;;;;;;;2.65;2.20;;;;;;;-0.84;72.41;96457.50;5040479;28;20065;-59
2022/01/15 09:19:33;;;;;;;2.88;1.60;;;;;;;-0.83;71.18;96474.69;5050759;28;20036;-59
2022/01/15 09:22:01;;;;;;;3.10;1.40;;;;;;;-0.79;71.04;96473.22;5050649;28;20549;-57
2022/01/15 09:24:26;;;;;;;1.45;1.35;;;;;;;-0.75;70.15;96464.69;5043052;28;20501;-57
2022/01/15 09:32:04;;;;;;;1.30;1.20;;;;;;;-0.81;67.79;96467.44;5090199;28;20044;-61
2022/01/15 09:34:32;;;;;;;1.00;1.00;;;;;;;-0.83;67.70;96467.66;5050969;28;20051;-62
2022/01/15 09:37:06;;;;;;;1.85;1.20;;;;;;;-0.91;68.60;96499.28;5047508;28;20044;-59
2022/01/15 09:39:32;;;;;;;1.25;1.15;;;;;;;-0.75;68.84;96495.09;5058036;28;20102;-61
2022/01/15 09:41:58;;;;;;;1.27;1.17;;;;;;;-0.88;69.39;96469.41;5075658;28;20049;-62
2022/01/15 09:44:25;;;;;;;1.77;1.30;;;;;;;-0.55;69.91;96505.06;5080047;28;20421;-62
2022/01/15 09:46:52;;;;;;;2.80;1.50;;;;;;;-0.63;70.60;96501.03;5071642;28;20044;-62
2022/01/15 09:49:20;;;;;;;1.88;1.45;;;;;;;-0.58;70.19;96514.13;5070272;28;20551;-62
2022/01/15 09:51:46;;;;;;;1.63;1.20;;;;;;;-0.61;70.99;96522.41;5072028;28;20505;-61
2022/01/15 09:54:19;;;;;;;1.35;1.25;;;;;;;-0.76;70.68;96533.34;5068701;28;20051;-59
2022/01/15 09:56:46;;;;;;;1.13;1.00;;;;;;;-0.71;71.62;96520.44;5050239;28;20071;-63
2022/01/15 09:59:13;;;;;;;2.33;1.50;;;;;;;-0.80;71.74;96529.59;5051701;28;20471;-60
2022/01/15 10:01:38;;;;;;;2.10;1.40;;;;;;;-0.86;71.34;96530.56;5051715;28;20049;-62
2022/01/15 10:04:05;;;;;;;3.00;1.25;;;;;;;-0.95;71.27;96558.75;5052493;28;20041;-63
2022/01/15 10:06:31;;;;;;;4.85;2.45;;;;;;;-0.73;70.58;96539.88;5051939;28;20099;-62
2022/01/15 10:09:08;;;;;;;1.25;1.15;;;;;;;-0.53;68.60;96549.81;5052182;28;20079;-65
2022/01/15 10:11:51;;;;;;;1.30;0.90;;;;;;;-0.46;67.16;96548.66;5051588;28;20048;-59
2022/01/15 10:14:27;;;;;;;0.77;0.70;;;;;;;-0.54;66.95;96561.25;5057221;28;20053;-62
2022/01/15 10:16:55;;;;;;;2.30;1.30;;;;;;;-0.59;66.54;96561.97;5068370;28;20049;-60
2022/01/15 10:19:35;;;;;;;2.53;1.38;;;;;;;-0.76;66.02;96546.34;5063856;28;20127;-61
2022/01/15 10:22:18;;;;;;;1.63;1.00;;;;;;;-0.62;66.26;96559.81;5069251;28;20064;-60
2022/01/15 10:24:52;;;;;;;1.10;1.00;;;;;;;-0.61;65.69;96581.44;5070187;28;20162;-62
2022/01/15 10:27:22;;;;;;;1.02;1.00;;;;;;;-0.62;66.09;96567.63;5065138;28;20135;-63
2022/01/15 10:30:08;;;;;;;5.90;2.10;;;;;;;-0.82;65.49;96616.72;5053270;28;20075;-62
2022/01/15 10:32:36;;;;;;;2.03;1.30;;;;;;;-0.76;66.55;96590.56;5053936;28;20097;-60
2022/01/15 10:35:16;;;;;;;0.82;0.82;;;;;;;-0.85;65.91;96617.97;5054080;28;20536;-63
2022/01/15 10:37:53;;;;;;;1.20;1.10;;;;;;;-0.92;66.37;96610.28;5036740;28;20434;-61
2022/01/15 10:40:22;;;;;;;2.85;1.13;;;;;;;-1.02;66.74;96610.09;5053029;28;20179;-58
2022/01/15 10:42:59;;;;;;;1.27;1.08;;;;;;;-1.01;67.42;96616.09;5055742;28;20037;-58
2022/01/15 10:45:29;;;;;;;1.88;1.30;;;;;;;-1.11;67.28;96613.31;5058672;28;20474;-61
2022/01/15 10:48:01;;;;;;;0.90;0.90;;;;;;;-1.19;68.72;96624.84;5024749;28;20036;-61
2022/01/15 10:50:35;;;;;;;1.55;1.00;;;;;;;-1.21;68.46;96632.84;5052776;28;20597;-61
2022/01/15 10:53:12;;;;;;;0.98;0.98;;;;;;;-1.19;68.31;96635.25;5054631;28;20142;-61
2022/01/15 10:55:40;;;;;;;1.20;1.10;;;;;;;-1.12;67.47;96616.91;5061003;28;20068;-61
2022/01/15 10:58:09;;;;;;;1.13;1.02;;;;;;;-1.20;67.68;96628.47;5066432;28;20045;-60
2022/01/15 11:00:41;;;;;;;1.40;1.20;;;;;;;-1.11;67.04;96634.91;5037485;28;20505;-58
2022/01/15 11:03:11;;;;;;;2.65;1.10;;;;;;;-1.01;67.24;96632.47;5063046;28;20040;-62
2022/01/15 11:05:41;;;;;;;1.50;1.27;;;;;;;-0.95;66.75;96641.94;5030551;28;20135;-62
2022/01/15 11:08:13;;;;;;;2.15;1.17;;;;;;;-0.96;66.76;96645.59;5054079;28;20041;-64
2022/01/15 11:10:44;;;;;;;2.10;1.15;;;;;;;-1.00;67.15;96652.28;5054139;28;20417;-63
2022/01/15 11:13:12;;;;;;;1.40;1.10;;;;;;;-1.07;66.62;96643.81;5054286;28;20099;-60
2022/01/15 11:15:42;;;;;;;1.80;1.10;;;;;;;-1.00;66.99;96667.88;5072333;28;20056;-61
2022/01/15 11:18:14;;;;;;;2.25;1.17;;;;;;;-1.02;67.43;96643.91;5073146;28;20043;-63
2022/01/15 11:20:45;;;;;;;2.83;1.20;;;;;;;-1.12;68.11;96687.88;5074175;28;20066;-61
2022/01/15 11:23:12;;;;;;;3.15;1.40;;;;;;;-1.11;68.71;96670.50;5073753;28;20044;-59
2022/01/15 11:25:39;;;;;;;1.55;1.15;;;;;;;-1.03;69.11;96672.72;5052440;28;20103;-60
2022/01/15 11:28:05;;;;;;;2.45;1.52;;;;;;;-1.11;70.19;96678.31;5052527;28;20132;-61
2022/01/15 11:30:32;;;;;;;1.00;0.90;;;;;;;-1.18;70.68;96689.63;5053838;28;20048;-57
2022/01/15 11:32:59;;;;;;;4.95;1.45;;;;;;;-1.22;71.46;96703.28;5049828;28;20078;-63
2022/01/15 11:35:51;;;;;;;1.13;1.02;;;;;;;-1.24;71.22;96711.28;5066808;28;20576;-58
2022/01/15 11:38:40;;;;;;;1.20;1.00;;;;;;;-1.23;70.93;96725.88;5073150;28;20053;-60
2022/01/15 11:41:26;;;;;;;1.45;1.20;;;;;;;-1.47;71.37;96724.28;5073762;28;20053;-60
2022/01/15 11:44:03;;;;;;;1.40;1.30;;;;;;;-1.33;71.99;96732.66;5073842;28;20037;-62
2022/01/15 11:46:43;;;;;;;1.38;1.08;;;;;;;-1.27;71.33;96740.34;5073450;28;20044;-61
2022/01/15 11:49:28;;;;;;;;;;;;;;;-1.26;71.13;96743.75;5073535;28;20052;-62
2022/01/15 11:51:56;;;;;;;2.13;1.95;;;;;;;-1.19;71.77;96732.19;5071582;28;20386;-63
2022/01/15 11:54:22;;;;;;;1.38;1.08;;;;;;;-1.27;71.18;96745.53;5071824;28;20505;-63
2022/01/15 11:56:49;;;;;;;2.60;1.70;;;;;;;-1.30;71.63;96753.00;5055666;28;20446;-62
2022/01/15 11:59:24;;;;;;;3.78;1.33;;;;;;;-1.33;71.34;96756.84;5055399;28;20040;-62
2022/01/15 12:01:51;;;;;;;1.40;0.82;;;;;;;-1.38;71.87;96773.13;5071970;28;20482;-64
2022/01/15 12:04:24;;;;;;;2.83;1.48;;;;;;;-1.39;71.58;96778.53;5071500;28;20131;-64